Data for 11/09/2006

Time Sea-Level Adjusted Pressure Absolute Pressure Temperature Relative Humidity Dew Point   
(mb) (inHg) (mb) (inHg) (C) (F) (%) (C) (F)
00:05 1011 29.85 840 24.81 1.7 35.1 83 -0.8 30.6
00:10 1011 29.85 840 24.81 1.9 35.3 82 -0.9 30.5
00:15 1011 29.85 840 24.81 2.2 35.9 81 -0.8 30.5
00:20 1011 29.85 840 24.81 2.3 36.1 80 -0.8 30.5
00:25 1011 29.85 840 24.81 2 35.6 81 -0.9 30.4
00:30 1011 29.85 840 24.81 1.9 35.4 82 -0.9 30.3
00:35 1011 29.85 840 24.81 2 35.5 80 -1.2 29.9
00:40 1011 29.85 840 24.81 1.9 35.4 79 -1.4 29.5
00:45 1011 29.85 840 24.81 1.7 35.1 80 -1.4 29.5
00:50 1011 29.85 840 24.81 1.5 34.8 82 -1.2 29.9
00:55 1011 29.85 840 24.81 1.6 34.8 79 -1.8 28.8
01:00 1011 29.85 840 24.81 1.7 35.1 74 -2.4 27.6
01:05 1011 29.85 840 24.81 1.8 35.3 73 -2.4 27.6
01:10 1011 29.85 840 24.81 1.6 34.9 75 -2.3 27.9
01:15 1011 29.85 840 24.81 1.4 34.5 75 -2.5 27.5
01:20 1011 29.85 840 24.81 1.6 34.9 74 -2.5 27.5
01:25 1011 29.85 840 24.81 1.8 35.2 74 -2.4 27.7
01:30 1011 29.85 840 24.81 1.6 34.8 76 -2.2 28.1
01:35 1011 29.85 840 24.81 1.1 34 79 -2.1 28.3
01:40 1011 29.85 840 24.81 1 33.8 83 -1.5 29.3
01:45 1011 29.85 840 24.81 0.9 33.7 84 -1.4 29.4
01:50 1011 29.85 840 24.81 0.9 33.6 83 -1.6 29.1
01:55 1011 29.85 840 24.81 0.9 33.6 80 -2.1 28.3
02:00 1011 29.85 840 24.81 1 33.7 79 -2.3 27.8
02:05 1011 29.85 840 24.81 1.2 34.2 73 -3.2 26.3
02:10 1011 29.85 840 24.81 1.6 34.8 73 -2.8 26.9
02:15 1011 29.85 840 24.81 1.6 34.9 74 -2.5 27.5
02:20 1011 29.85 840 24.81 1.6 34.8 75 -2.4 27.8
02:25 1011 29.85 840 24.81 1.4 34.4 76 -2.5 27.6
02:30 1011 29.85 840 24.81 1.4 34.5 74 -2.8 26.9
02:35 1011 29.85 840 24.81 1.5 34.7 73 -2.8 27
02:40 1011 29.85 840 24.81 1.6 35 75 -2.3 27.8
02:45 1011 29.85 840 24.81 1.4 34.5 76 -2.3 27.8
02:50 1011 29.85 840 24.81 1.2 34.1 78 -2.2 28.1
02:55 1011 29.85 840 24.81 1.1 34 76 -2.7 27.1
03:00 1011 29.85 840 24.81 1.2 34.1 74 -2.9 26.7
03:05 1011 29.85 840 24.81 1.3 34.3 75 -2.7 27.1
03:10 1011 29.85 840 24.81 1.3 34.4 75 -2.6 27.3
03:15 1011 29.85 840 24.81 1.3 34.4 75 -2.6 27.3
03:20 1011 29.85 840 24.81 1.3 34.4 75 -2.5 27.4
03:25 1011 29.85 840 24.81 1.4 34.6 74 -2.7 27.1
03:30 1011 29.85 840 24.81 1.6 34.8 73 -2.8 27
03:35 1011 29.85 840 24.81 1.4 34.6 76 -2.4 27.8
03:40 1011 29.85 840 24.81 1.3 34.3 77 -2.3 27.9
03:45 1011 29.85 840 24.81 1.2 34.1 79 -2.1 28.2
03:50 1011 29.85 840 24.81 1.2 34.2 78 -2.1 28.2
03:55 1011 29.85 840 24.81 1.5 34.8 75 -2.4 27.8
04:00 1011 29.85 840 24.81 1.8 35.2 75 -2.1 28.1
04:05 1011 29.85 840 24.81 1.8 35.2 75 -2.3 27.9
04:10 1011 29.85 840 24.81 1.8 35.2 73 -2.6 27.3
04:15 1011 29.85 840 24.81 1.7 35 73 -2.8 27
04:20 1011 29.85 840 24.81 1.7 35 69 -3.4 25.9
04:25 1011 29.85 840 24.81 1.7 35.1 66 -4.1 24.7
04:30 1011 29.85 840 24.81 1.8 35.2 62 -4.7 23.5
04:35 1011 29.85 840 24.81 1.8 35.2 61 -5 23.1
04:40 1011 29.85 840 24.81 1.8 35.2 61 -4.9 23.1
04:45 1011 29.85 840 24.81 1.8 35.2 62 -4.7 23.6
04:50 1011 29.85 840 24.81 1.8 35.2 62 -4.8 23.4
04:55 1011 29.85 840 24.81 1.8 35.2 61 -4.9 23.1
05:00 1011 29.85 841 24.83 1.8 35.2 61 -4.9 23.3
05:05 1011 29.85 841 24.83 1.8 35.2 61 -5 23.1
05:10 1011 29.85 841 24.83 1.8 35.2 62 -4.6 23.6
05:15 1011 29.85 840 24.81 1.6 34.9 64 -4.5 24
05:20 1011 29.85 841 24.83 1.5 34.7 64 -4.6 23.7
05:25 1011 29.85 841 24.83 1.6 34.9 64 -4.6 23.7
05:30 1011 29.85 841 24.83 1.5 34.8 64 -4.6 23.8
05:35 1011 29.85 841 24.83 1.2 34.2 66 -4.4 24.1
05:40 1011 29.85 841 24.83 1.1 34 66 -4.6 23.7
05:45 1012 29.88 841 24.83 1 33.9 67 -4.4 24.1
05:50 1011 29.85 841 24.83 1 33.8 67 -4.4 24.1
05:55 1011 29.85 841 24.83 1 33.8 67 -4.5 24
06:00 1012 29.88 841 24.83 1.1 34 66 -4.6 23.7
06:05 1012 29.88 841 24.83 1.1 33.9 66 -4.5 23.9
06:10 1012 29.88 841 24.83 1 33.8 65 -4.8 23.4
06:15 1012 29.88 841 24.83 0.9 33.6 67 -4.6 23.7
06:20 1012 29.88 841 24.83 0.9 33.6 67 -4.5 23.9
06:25 1012 29.88 841 24.83 1.1 34 67 -4.4 24.1
06:30 1012 29.88 841 24.83 1.2 34.2 68 -4.1 24.6
06:35 1012 29.88 841 24.83 1 33.8 68 -4.2 24.5
06:40 1012 29.88 841 24.83 1.1 34 68 -4.2 24.4
06:45 1011 29.85 841 24.83 1 33.8 67 -4.5 23.9
06:50 1012 29.88 841 24.83 1 33.7 67 -4.6 23.8
06:55 1012 29.88 841 24.83 1.1 34 66 -4.6 23.7
07:00 1012 29.88 841 24.83 1.2 34.2 65 -4.7 23.5
07:05 1012 29.88 841 24.83 1.1 34.1 65 -4.7 23.6
07:10 1012 29.88 841 24.83 1 33.7 66 -4.7 23.5
07:15 1012 29.88 841 24.83 1.2 34.1 64 -4.9 23.3
07:20 1012 29.88 841 24.83 1.2 34.2 65 -4.7 23.5
07:25 1012 29.88 841 24.83 1.3 34.4 64 -4.7 23.5
07:30 1012 29.88 841 24.83 1.1 34 65 -4.9 23.3
07:35 1012 29.88 841 24.83 0.9 33.6 65 -4.9 23.1
07:40 1012 29.88 841 24.83 0.9 33.6 65 -5 23.1
07:45 1012 29.88 841 24.83 0.9 33.7 66 -4.8 23.4
07:50 1012 29.88 841 24.83 0.9 33.7 70 -4 24.8
07:55 1012 29.88 842 24.86 0.3 32.6 80 -2.7 27.1
08:00 1012 29.88 842 24.86 -0.1 31.7 85 -2.4 27.7
08:05 1012 29.88 842 24.86 -0.5 31 88 -2.2 28
08:10 1012 29.88 842 24.86 -0.6 31 89 -2.2 28
08:15 1012 29.88 842 24.86 -0.6 31 88 -2.3 27.9
08:20 1012 29.88 842 24.86 -0.8 30.5 90 -2.3 27.9
08:25 1012 29.88 842 24.86 -0.9 30.4 90 -2.4 27.8
08:30 1012 29.88 842 24.86 -0.9 30.3 91 -2.3 27.9
08:35 1013 29.91 842 24.86 -0.9 30.4 90 -2.4 27.8
08:40 1013 29.91 842 24.86 -0.8 30.5 90 -2.3 27.9
08:45 1013 29.91 842 24.86 -0.6 30.8 89 -2.3 27.9
08:50 1013 29.91 842 24.86 -0.6 31 89 -2.2 28
08:55 1013 29.91 842 24.86 -0.5 31.1 88 -2.3 27.9
09:00 1013 29.91 842 24.86 -0.3 31.4 89 -2 28.4
09:05 1013 29.91 842 24.86 -0 32 86 -2.1 28.2
09:10 1013 29.91 842 24.86 0.1 32.1 86 -2 28.3
09:15 1013 29.91 842 24.86 -0.1 31.9 87 -2 28.4
09:20 1013 29.91 842 24.86 0.2 32.3 87 -1.8 28.7
09:25 1013 29.91 842 24.86 0.3 32.6 86 -1.8 28.8
09:30 1013 29.91 842 24.86 0.2 32.4 85 -2 28.4
09:35 1013 29.91 842 24.86 -0 32 85 -2.3 27.9
09:40 1013 29.91 842 24.86 -0 32 87 -2 28.5
09:45 1013 29.91 842 24.86 0.1 32.3 88 -1.6 29
09:50 1013 29.91 842 24.86 0.1 32.1 88 -1.7 29
09:55 1013 29.91 842 24.86 0.1 32.2 87 -1.7 28.9
10:00 1013 29.91 842 24.86 0.3 32.5 87 -1.6 29.2
10:05 1013 29.91 842 24.86 0.5 32.8 86 -1.7 29
10:10 1013 29.91 842 24.86 0.7 33.3 86 -1.4 29.5
10:15 1013 29.91 842 24.86 0.9 33.6 83 -1.7 28.9
10:20 1013 29.91 842 24.86 0.9 33.6 85 -1.3 29.6
10:25 1013 29.91 842 24.86 1.1 34 83 -1.5 29.2
10:30 1013 29.91 842 24.86 0.8 33.5 86 -1.3 29.6
10:35 1013 29.91 842 24.86 0.9 33.5 83 -1.7 29
10:40 1013 29.91 842 24.86 0.8 33.5 85 -1.3 29.6
10:45 1013 29.91 842 24.86 1.5 34.7 81 -1.5 29.4
10:50 1013 29.91 842 24.86 2.1 35.8 78 -1.3 29.6
10:55 1013 29.91 842 24.86 2.2 36 76 -1.5 29.2
11:00 1013 29.91 842 24.86 2.3 36.1 74 -1.8 28.7
11:05 1013 29.91 842 24.86 2.6 36.7 75 -1.3 29.6
11:10 1013 29.91 842 24.86 3.1 37.6 71 -1.6 29.1
11:15 1013 29.91 842 24.86 3 37.4 75 -1 30.2
11:20 1013 29.91 842 24.86 3.4 38.1 71 -1.3 29.6
11:25 1013 29.91 842 24.86 3.3 37.9 73 -1.1 30.1
11:30 1013 29.91 842 24.86 4 39.3 67 -1.6 29.1
11:35 1013 29.91 842 24.86 4.3 39.8 67 -1.2 29.9
11:40 1013 29.91 842 24.86 3.5 38.3 73 -0.9 30.3
11:45 1013 29.91 842 24.86 3.7 38.6 69 -1.4 29.5
11:50 1013 29.91 842 24.86 4.2 39.5 66 -1.7 28.9
11:55 1013 29.91 842 24.86 4 39.3 67 -1.6 29.1
12:00 1013 29.91 842 24.86 3.8 38.8 67 -1.9 28.6
12:05 1013 29.91 842 24.86 4.1 39.5 67 -1.5 29.4
12:10 1013 29.91 842 24.86 4.1 39.4 66 -1.7 29
12:15 1013 29.91 842 24.86 3.3 37.9 69 -1.8 28.7
12:20 1013 29.91 842 24.86 3.3 38 66 -2.4 27.7
12:25 1013 29.91 842 24.86 3.7 38.6 67 -1.9 28.5
12:30 1013 29.91 842 24.86 4.1 39.3 64 -2.2 28.1
12:35 1013 29.91 842 24.86 4 39.2 63 -2.4 27.7
12:40 1013 29.91 842 24.86 4 39.2 64 -2.1 28.2
12:45 1013 29.91 842 24.86 3.9 39 65 -2.1 28.2
12:50 1013 29.91 842 24.86 3.2 37.8 68 -2.1 28.2
12:55 1013 29.91 842 24.86 3.1 37.5 67 -2.4 27.7
13:00 1013 29.91 842 24.86 2.8 37.1 68 -2.4 27.7
13:05 1013 29.91 842 24.86 3.2 37.8 66 -2.4 27.6
13:10 1013 29.91 842 24.86 3.4 38.1 66 -2.3 27.9
13:15 1013 29.91 842 24.86 3.1 37.6 67 -2.4 27.6
13:20 1013 29.91 842 24.86 2.6 36.7 69 -2.5 27.5
13:25 1013 29.91 842 24.86 3 37.3 68 -2.4 27.6
13:30 1013 29.91 842 24.86 2.7 36.9 70 -2.2 28
13:35 1013 29.91 842 24.86 2.8 37.1 67 -2.6 27.3
13:40 1013 29.91 842 24.86 2.9 37.3 67 -2.7 27.2
13:45 1013 29.91 842 24.86 3.3 37.9 67 -2.3 27.9
13:50 1013 29.91 842 24.86 3.3 37.9 68 -2 28.4
13:55 1013 29.91 842 24.86 3.2 37.8 67 -2.2 28
14:00 1013 29.91 842 24.86 3.4 38.1 66 -2.3 27.8
14:05 1013 29.91 842 24.86 3.5 38.3 65 -2.4 27.6
14:10 1013 29.91 842 24.86 3.3 37.9 66 -2.4 27.7
14:15 1013 29.91 842 24.86 3 37.4 65 -2.9 26.8
14:20 1013 29.91 842 24.86 3.4 38.1 62 -3.1 26.4
14:25 1013 29.91 842 24.86 3.6 38.5 60 -3.4 25.9
14:30 1013 29.91 842 24.86 3.8 38.8 57 -4 24.8
14:35 1013 29.91 842 24.86 3.9 39 54 -4.6 23.8
14:40 1013 29.91 842 24.86 4.2 39.5 53 -4.6 23.8
14:45 1013 29.91 842 24.86 4.4 39.9 50 -5 22.9
14:50 1013 29.91 843 24.89 4.8 40.6 48 -5.4 22.3
14:55 1013 29.91 843 24.89 4.8 40.7 54 -3.7 25.4
15:00 1013 29.91 843 24.89 4.4 39.9 57 -3.5 25.8
15:05 1013 29.91 843 24.89 4.1 39.4 57 -3.7 25.3
15:10 1014 29.94 843 24.89 4.4 39.8 55 -3.9 25
15:15 1014 29.94 843 24.89 3.8 38.8 60 -3.2 26.2
15:20 1014 29.94 843 24.89 3.2 37.8 61 -3.6 25.6
15:25 1014 29.94 843 24.89 3.3 37.9 60 -3.7 25.4
15:30 1014 29.94 843 24.89 3.2 37.8 62 -3.5 25.8
15:35 1014 29.94 843 24.89 3.2 37.8 61 -3.7 25.4
15:40 1014 29.94 843 24.89 3.4 38.1 58 -4.1 24.5
15:45 1014 29.94 843 24.89 4.1 39.4 56 -3.9 25.1
15:50 1014 29.94 843 24.89 4.4 40 55 -3.7 25.3
15:55 1014 29.94 843 24.89 5.2 41.4 52 -3.9 25
16:00 1014 29.94 843 24.89 5.3 41.6 52 -3.7 25.4
16:05 1014 29.94 843 24.89 4.3 39.8 55 -4 24.9
16:10 1014 29.94 843 24.89 3.9 39 56 -4 24.8
16:15 1014 29.94 843 24.89 3.4 38 59 -4 24.8
16:20 1014 29.94 843 24.89 3.6 38.4 57 -4.3 24.3
16:25 1014 29.94 844 24.92 3.9 39.1 56 -4.1 24.6
16:30 1014 29.94 844 24.92 3.9 39 56 -4 24.8
16:35 1014 29.94 844 24.92 3.5 38.4 59 -3.8 25.1
16:40 1015 29.97 844 24.92 3.5 38.3 59 -3.8 25.2
16:45 1015 29.97 844 24.92 3.1 37.6 61 -3.7 25.3
16:50 1015 29.97 844 24.92 3.3 37.9 60 -3.8 25.2
16:55 1015 29.97 844 24.92 3.1 37.6 62 -3.5 25.7
17:00 1015 29.97 844 24.92 2.6 36.8 65 -3.3 26.1
17:05 1015 29.97 844 24.92 2.3 36.1 69 -2.9 26.8
17:10 1015 29.97 844 24.92 1.8 35.3 75 -2.2 28
17:15 1015 29.97 844 24.92 1.5 34.8 76 -2.3 27.9
17:20 1015 29.97 844 24.92 1.5 34.6 76 -2.2 28
17:25 1015 29.97 844 24.92 1.3 34.3 78 -2.2 28.1
17:30 1015 29.97 844 24.92 1.1 33.9 79 -2.2 28
17:35 1015 29.97 845 24.95 0.9 33.6 80 -2.2 28
17:40 1015 29.97 845 24.95 0.6 33 81 -2.3 27.8
17:45 1015 29.97 845 24.95 0.4 32.7 82 -2.3 27.8
17:50 1016 30 845 24.95 0.2 32.4 81 -2.6 27.3
17:55 1016 30 845 24.95 0.3 32.5 79 -2.9 26.7
18:00 1016 30 845 24.95 0.4 32.7 77 -3.1 26.4
18:05 1016 30 845 24.95 0.6 33 76 -3.2 26.2
18:10 1016 30 845 24.95 0.7 33.2 76 -3.1 26.3
18:15 1016 30 845 24.95 0.5 32.8 76 -3.2 26.2
18:20 1016 30 845 24.95 0.4 32.8 77 -3.2 26.2
18:25 1016 30 845 24.95 0.4 32.7 77 -3.3 26.1
18:30 1016 30 845 24.95 0.3 32.6 77 -3.3 26
18:35 1016 30 845 24.95 0.5 32.8 75 -3.4 25.8
18:40 1016 30 845 24.95 0.4 32.8 76 -3.4 26
18:45 1016 30 845 24.95 0.4 32.7 76 -3.4 25.8
18:50 1016 30 845 24.95 0.4 32.6 75 -3.5 25.6
18:55 1016 30 846 24.98 0.3 32.5 75 -3.6 25.5
19:00 1016 30 846 24.98 0.3 32.6 73 -3.9 24.9
19:05 1016 30 846 24.98 0.3 32.6 75 -3.6 25.5
19:10 1016 30 846 24.98 -0.3 31.4 79 -3.5 25.7
19:15 1017 30.03 846 24.98 -0.7 30.7 79 -3.9 25
19:20 1017 30.03 846 24.98 -0.8 30.5 81 -3.8 25.2
19:25 1017 30.03 846 24.98 -0.7 30.8 81 -3.5 25.8
19:30 1017 30.03 846 24.98 -0.6 31 82 -3.4 26
19:35 1017 30.03 846 24.98 -0.6 30.9 81 -3.4 25.9
19:40 1017 30.03 846 24.98 -0.6 31 81 -3.4 25.9
19:45 1017 30.03 846 24.98 -0.6 30.9 81 -3.5 25.6
19:50 1017 30.03 846 24.98 -0.6 30.9 81 -3.5 25.7
19:55 1017 30.03 846 24.98 -0.8 30.5 82 -3.5 25.6
20:00 1017 30.03 846 24.98 -0.8 30.5 82 -3.6 25.6
20:05 1017 30.03 846 24.98 -1 30.3 83 -3.6 25.6
20:10 1017 30.03 846 24.98 -0.9 30.4 83 -3.5 25.7
20:15 1017 30.03 846 24.98 -1.1 30.1 83 -3.5 25.7
20:20 1017 30.03 846 24.98 -1 30.2 83 -3.6 25.6
20:25 1017 30.03 846 24.98 -1 30.2 83 -3.6 25.5
20:30 1017 30.03 846 24.98 -1 30.1 83 -3.6 25.5
20:35 1017 30.03 847 25.01 -1 30.2 82 -3.7 25.4
20:40 1017 30.03 847 25.01 -1.1 30.1 83 -3.6 25.4
20:45 1018 30.06 847 25.01 -1.1 30 83 -3.7 25.4
20:50 1018 30.06 847 25.01 -1.3 29.7 84 -3.7 25.3
20:55 1018 30.06 847 25.01 -1.4 29.4 84 -3.8 25.2
21:00 1018 30.06 847 25.01 -1.4 29.4 84 -3.8 25.1
21:05 1018 30.06 847 25.01 -1.4 29.4 83 -4 24.8
21:10 1018 30.06 847 25.01 -1.4 29.4 83 -3.9 24.9
21:15 1018 30.06 847 25.01 -1.6 29.1 84 -4.1 24.7
21:20 1018 30.06 847 25.01 -1.5 29.3 83 -4 24.8
21:25 1018 30.06 847 25.01 -1.5 29.3 82 -4.2 24.5
21:30 1018 30.06 847 25.01 -1.4 29.5 81 -4.3 24.3
21:35 1018 30.06 847 25.01 -1.4 29.5 81 -4.3 24.3
21:40 1018 30.06 847 25.01 -1.6 29.1 81 -4.5 24
21:45 1018 30.06 848 25.04 -1.5 29.2 81 -4.4 24
21:50 1018 30.06 848 25.04 -1.5 29.2 81 -4.4 24
21:55 1019 30.09 848 25.04 -1.5 29.3 79 -4.6 23.7
22:00 1019 30.09 848 25.04 -1.3 29.6 78 -4.6 23.7
22:05 1019 30.09 848 25.04 -1.2 29.8 78 -4.6 23.8
22:10 1019 30.09 848 25.04 -1.4 29.5 78 -4.7 23.5
22:15 1019 30.09 848 25.04 -1.4 29.5 78 -4.7 23.5
22:20 1019 30.09 848 25.04 -1.3 29.7 77 -4.8 23.4
22:25 1019 30.09 848 25.04 -1.3 29.7 79 -4.5 23.9
22:30 1019 30.09 848 25.04 -1.3 29.6 78 -4.6 23.7
22:35 1019 30.09 848 25.04 -1.3 29.7 78 -4.6 23.7
22:40 1019 30.09 848 25.04 -1.3 29.7 79 -4.5 23.8
22:45 1019 30.09 848 25.04 -1.3 29.7 79 -4.5 24
22:50 1019 30.09 848 25.04 -1.2 29.8 79 -4.4 24.1
22:55 1019 30.09 848 25.04 -1.2 29.8 79 -4.4 24.1
23:00 1019 30.09 848 25.04 -1.2 29.8 79 -4.4 24.1
23:05 1019 30.09 849 25.07 -1.2 29.8 79 -4.4 24.1
23:10 1020 30.12 849 25.07 -1.3 29.7 79 -4.5 24
23:15 1020 30.12 849 25.07 -1.2 29.8 79 -4.4 24.1
23:20 1020 30.12 849 25.07 -1.2 29.9 78 -4.5 23.9
23:25 1020 30.12 849 25.07 -1.2 29.8 78 -4.5 23.8
23:30 1020 30.12 849 25.07 -1.3 29.6 79 -4.5 23.9
23:35 1020 30.12 849 25.07 -1.3 29.6 78 -4.7 23.5
23:40 1020 30.12 849 25.07 -1.1 30 77 -4.6 23.7
23:45 1020 30.12 849 25.07 -0.9 30.5 77 -4.4 24.1
23:50 1020 30.12 849 25.07 -0.9 30.4 77 -4.4 24
23:55 1020 30.12 849 25.07 -0.9 30.3 77 -4.4 24
24:00 1020 30.12 849 25.07 -0.7 30.8 75 -4.5 23.8